sensor_id;sensor_type;location;lat;lon;timestamp;P1;durP1;ratioP1;P2;durP2;ratioP2
6414;SDS011;3240;48.790;9.210;2022-10-17T00:00:06;6.03;;;5.03;;
6414;SDS011;3240;48.790;9.210;2022-10-17T00:02:35;10.65;;;5.47;;
6414;SDS011;3240;48.790;9.210;2022-10-17T00:05:03;10.90;;;5.00;;
6414;SDS011;3240;48.790;9.210;2022-10-17T00:07:31;10.50;;;4.93;;
6414;SDS011;3240;48.790;9.210;2022-10-17T00:10:00;8.63;;;4.47;;
6414;SDS011;3240;48.790;9.210;2022-10-17T00:12:28;10.57;;;4.50;;
6414;SDS011;3240;48.790;9.210;2022-10-17T00:14:56;7.80;;;5.17;;
6414;SDS011;3240;48.790;9.210;2022-10-17T00:17:25;7.47;;;4.33;;
6414;SDS011;3240;48.790;9.210;2022-10-17T00:19:53;14.67;;;5.00;;
6414;SDS011;3240;48.790;9.210;2022-10-17T00:22:21;10.93;;;4.30;;
6414;SDS011;3240;48.790;9.210;2022-10-17T00:24:50;14.43;;;4.60;;
6414;SDS011;3240;48.790;9.210;2022-10-17T00:27:18;9.37;;;5.30;;
6414;SDS011;3240;48.790;9.210;2022-10-17T00:29:47;7.73;;;4.57;;
6414;SDS011;3240;48.790;9.210;2022-10-17T00:32:15;7.90;;;4.17;;
6414;SDS011;3240;48.790;9.210;2022-10-17T00:34:43;12.77;;;4.97;;
6414;SDS011;3240;48.790;9.210;2022-10-17T00:37:11;8.53;;;5.03;;
6414;SDS011;3240;48.790;9.210;2022-10-17T00:39:39;10.53;;;4.77;;
6414;SDS011;3240;48.790;9.210;2022-10-17T00:42:09;10.20;;;5.27;;
6414;SDS011;3240;48.790;9.210;2022-10-17T00:47:19;15.00;;;5.43;;
6414;SDS011;3240;48.790;9.210;2022-10-17T00:49:48;10.80;;;5.10;;
6414;SDS011;3240;48.790;9.210;2022-10-17T00:52:18;11.10;;;5.13;;
6414;SDS011;3240;48.790;9.210;2022-10-17T00:54:47;9.83;;;5.90;;
6414;SDS011;3240;48.790;9.210;2022-10-17T00:57:14;6.00;;;4.37;;
6414;SDS011;3240;48.790;9.210;2022-10-17T00:59:42;6.60;;;4.53;;
6414;SDS011;3240;48.790;9.210;2022-10-17T01:02:12;7.03;;;4.63;;
6414;SDS011;3240;48.790;9.210;2022-10-17T01:04:40;9.17;;;5.10;;
6414;SDS011;3240;48.790;9.210;2022-10-17T01:07:07;6.83;;;4.30;;
6414;SDS011;3240;48.790;9.210;2022-10-17T01:09:35;6.70;;;4.30;;
6414;SDS011;3240;48.790;9.210;2022-10-17T01:14:53;6.53;;;4.97;;
6414;SDS011;3240;48.790;9.210;2022-10-17T01:20:13;7.80;;;4.57;;
6414;SDS011;3240;48.790;9.210;2022-10-17T01:22:38;8.00;;;5.10;;
6414;SDS011;3240;48.790;9.210;2022-10-17T01:25:14;8.20;;;4.60;;
6414;SDS011;3240;48.790;9.210;2022-10-17T01:30:26;6.50;;;3.93;;
6414;SDS011;3240;48.790;9.210;2022-10-17T01:32:55;7.47;;;4.37;;
6414;SDS011;3240;48.790;9.210;2022-10-17T01:35:29;16.33;;;5.30;;
6414;SDS011;3240;48.790;9.210;2022-10-17T01:38:17;8.65;;;4.30;;
6414;SDS011;3240;48.790;9.210;2022-10-17T01:40:47;11.53;;;4.50;;
6414;SDS011;3240;48.790;9.210;2022-10-17T01:43:16;12.43;;;4.47;;
6414;SDS011;3240;48.790;9.210;2022-10-17T01:45:45;10.97;;;5.53;;
6414;SDS011;3240;48.790;9.210;2022-10-17T01:48:15;7.07;;;4.47;;
6414;SDS011;3240;48.790;9.210;2022-10-17T01:50:43;9.80;;;4.13;;
6414;SDS011;3240;48.790;9.210;2022-10-17T01:53:12;7.47;;;4.00;;
6414;SDS011;3240;48.790;9.210;2022-10-17T01:55:39;10.57;;;4.20;;
6414;SDS011;3240;48.790;9.210;2022-10-17T01:58:11;9.40;;;4.57;;
6414;SDS011;3240;48.790;9.210;2022-10-17T02:00:37;16.10;;;4.67;;
6414;SDS011;3240;48.790;9.210;2022-10-17T02:03:06;8.83;;;3.73;;
6414;SDS011;3240;48.790;9.210;2022-10-17T02:05:35;12.17;;;6.60;;
6414;SDS011;3240;48.790;9.210;2022-10-17T02:08:02;12.23;;;4.60;;
6414;SDS011;3240;48.790;9.210;2022-10-17T02:10:36;8.37;;;4.37;;
6414;SDS011;3240;48.790;9.210;2022-10-17T02:13:05;10.63;;;3.93;;
6414;SDS011;3240;48.790;9.210;2022-10-17T02:20:44;8.47;;;3.87;;
6414;SDS011;3240;48.790;9.210;2022-10-17T02:23:11;5.30;;;4.00;;
6414;SDS011;3240;48.790;9.210;2022-10-17T02:25:38;11.83;;;4.00;;
6414;SDS011;3240;48.790;9.210;2022-10-17T02:28:14;6.90;;;3.20;;
6414;SDS011;3240;48.790;9.210;2022-10-17T02:30:49;8.10;;;3.53;;
6414;SDS011;3240;48.790;9.210;2022-10-17T02:33:20;3.43;;;3.00;;
6414;SDS011;3240;48.790;9.210;2022-10-17T02:35:47;13.07;;;3.97;;
6414;SDS011;3240;48.790;9.210;2022-10-17T02:38:14;9.90;;;4.20;;
6414;SDS011;3240;48.790;9.210;2022-10-17T02:40:43;6.70;;;3.50;;
6414;SDS011;3240;48.790;9.210;2022-10-17T02:43:11;6.00;;;3.20;;
6414;SDS011;3240;48.790;9.210;2022-10-17T02:45:39;6.10;;;3.60;;
6414;SDS011;3240;48.790;9.210;2022-10-17T02:48:08;6.87;;;3.60;;
6414;SDS011;3240;48.790;9.210;2022-10-17T02:50:38;5.53;;;3.23;;
6414;SDS011;3240;48.790;9.210;2022-10-17T02:53:05;13.93;;;3.33;;
6414;SDS011;3240;48.790;9.210;2022-10-17T02:55:34;7.63;;;3.70;;
6414;SDS011;3240;48.790;9.210;2022-10-17T02:58:03;6.43;;;3.03;;
6414;SDS011;3240;48.790;9.210;2022-10-17T03:00:30;10.23;;;3.30;;
6414;SDS011;3240;48.790;9.210;2022-10-17T03:02:58;8.23;;;3.60;;
6414;SDS011;3240;48.790;9.210;2022-10-17T03:05:28;20.13;;;4.50;;
6414;SDS011;3240;48.790;9.210;2022-10-17T03:07:55;8.40;;;4.57;;
6414;SDS011;3240;48.790;9.210;2022-10-17T03:10:23;6.57;;;3.60;;
6414;SDS011;3240;48.790;9.210;2022-10-17T03:12:52;7.60;;;4.30;;
6414;SDS011;3240;48.790;9.210;2022-10-17T03:15:20;10.60;;;4.47;;
6414;SDS011;3240;48.790;9.210;2022-10-17T03:17:48;12.43;;;4.40;;
6414;SDS011;3240;48.790;9.210;2022-10-17T03:20:17;7.13;;;4.30;;
6414;SDS011;3240;48.790;9.210;2022-10-17T03:22:45;18.33;;;4.47;;
6414;SDS011;3240;48.790;9.210;2022-10-17T03:25:13;12.73;;;4.37;;
6414;SDS011;3240;48.790;9.210;2022-10-17T03:27:42;13.83;;;3.97;;
6414;SDS011;3240;48.790;9.210;2022-10-17T03:30:10;10.67;;;4.43;;
6414;SDS011;3240;48.790;9.210;2022-10-17T03:32:38;12.17;;;4.60;;
6414;SDS011;3240;48.790;9.210;2022-10-17T03:35:07;9.03;;;4.03;;
6414;SDS011;3240;48.790;9.210;2022-10-17T03:37:35;10.23;;;3.83;;
6414;SDS011;3240;48.790;9.210;2022-10-17T03:40:03;10.40;;;4.37;;
6414;SDS011;3240;48.790;9.210;2022-10-17T03:42:32;8.23;;;3.90;;
6414;SDS011;3240;48.790;9.210;2022-10-17T03:45:00;9.00;;;4.40;;
6414;SDS011;3240;48.790;9.210;2022-10-17T03:47:29;8.20;;;4.27;;
6414;SDS011;3240;48.790;9.210;2022-10-17T03:49:57;8.43;;;3.87;;
6414;SDS011;3240;48.790;9.210;2022-10-17T03:52:25;8.27;;;4.67;;
6414;SDS011;3240;48.790;9.210;2022-10-17T03:54:54;14.87;;;5.20;;
6414;SDS011;3240;48.790;9.210;2022-10-17T03:57:22;12.20;;;5.50;;
6414;SDS011;3240;48.790;9.210;2022-10-17T03:59:50;16.67;;;5.73;;
6414;SDS011;3240;48.790;9.210;2022-10-17T04:02:19;14.73;;;6.33;;
6414;SDS011;3240;48.790;9.210;2022-10-17T04:04:47;12.03;;;6.70;;
6414;SDS011;3240;48.790;9.210;2022-10-17T04:07:15;14.03;;;5.50;;
6414;SDS011;3240;48.790;9.210;2022-10-17T04:09:44;11.37;;;6.50;;
6414;SDS011;3240;48.790;9.210;2022-10-17T04:12:12;7.93;;;4.70;;
6414;SDS011;3240;48.790;9.210;2022-10-17T04:14:40;13.33;;;5.17;;
6414;SDS011;3240;48.790;9.210;2022-10-17T04:17:09;7.23;;;4.30;;
6414;SDS011;3240;48.790;9.210;2022-10-17T04:19:37;9.50;;;5.17;;
6414;SDS011;3240;48.790;9.210;2022-10-17T04:22:05;9.03;;;4.20;;
6414;SDS011;3240;48.790;9.210;2022-10-17T04:24:33;14.80;;;4.70;;
6414;SDS011;3240;48.790;9.210;2022-10-17T04:27:02;10.47;;;5.40;;
6414;SDS011;3240;48.790;9.210;2022-10-17T04:29:30;5.33;;;4.30;;
6414;SDS011;3240;48.790;9.210;2022-10-17T04:31:58;10.80;;;4.53;;
6414;SDS011;3240;48.790;9.210;2022-10-17T04:34:27;8.53;;;4.77;;
6414;SDS011;3240;48.790;9.210;2022-10-17T04:36:55;10.07;;;4.43;;
6414;SDS011;3240;48.790;9.210;2022-10-17T04:39:23;11.87;;;5.20;;
6414;SDS011;3240;48.790;9.210;2022-10-17T04:41:52;9.30;;;4.90;;
6414;SDS011;3240;48.790;9.210;2022-10-17T04:44:21;9.10;;;5.87;;
6414;SDS011;3240;48.790;9.210;2022-10-17T04:46:49;15.03;;;6.60;;
6414;SDS011;3240;48.790;9.210;2022-10-17T04:49:17;13.80;;;5.60;;
6414;SDS011;3240;48.790;9.210;2022-10-17T04:51:46;6.93;;;5.17;;
6414;SDS011;3240;48.790;9.210;2022-10-17T04:54:14;9.23;;;4.80;;
6414;SDS011;3240;48.790;9.210;2022-10-17T04:56:42;8.93;;;4.53;;
6414;SDS011;3240;48.790;9.210;2022-10-17T04:59:11;9.23;;;5.10;;
6414;SDS011;3240;48.790;9.210;2022-10-17T05:01:39;9.37;;;5.00;;
6414;SDS011;3240;48.790;9.210;2022-10-17T05:04:07;8.07;;;4.50;;
6414;SDS011;3240;48.790;9.210;2022-10-17T05:06:36;12.70;;;5.00;;
6414;SDS011;3240;48.790;9.210;2022-10-17T05:09:04;7.07;;;5.07;;
6414;SDS011;3240;48.790;9.210;2022-10-17T05:11:32;7.37;;;4.47;;
6414;SDS011;3240;48.790;9.210;2022-10-17T05:14:01;10.20;;;4.67;;
6414;SDS011;3240;48.790;9.210;2022-10-17T05:16:30;9.80;;;4.87;;
6414;SDS011;3240;48.790;9.210;2022-10-17T05:18:57;8.50;;;5.10;;
6414;SDS011;3240;48.790;9.210;2022-10-17T05:21:27;9.83;;;4.90;;
6414;SDS011;3240;48.790;9.210;2022-10-17T05:23:54;8.50;;;4.27;;
6414;SDS011;3240;48.790;9.210;2022-10-17T05:26:22;11.30;;;5.33;;
6414;SDS011;3240;48.790;9.210;2022-10-17T05:28:51;8.20;;;5.20;;
6414;SDS011;3240;48.790;9.210;2022-10-17T05:31:19;15.07;;;5.03;;
6414;SDS011;3240;48.790;9.210;2022-10-17T05:33:47;14.60;;;5.27;;
6414;SDS011;3240;48.790;9.210;2022-10-17T05:36:16;6.60;;;5.40;;
6414;SDS011;3240;48.790;9.210;2022-10-17T05:38:47;11.70;;;4.77;;
6414;SDS011;3240;48.790;9.210;2022-10-17T05:41:12;11.03;;;5.67;;
6414;SDS011;3240;48.790;9.210;2022-10-17T05:43:41;8.57;;;5.00;;
6414;SDS011;3240;48.790;9.210;2022-10-17T05:46:09;12.07;;;6.63;;
6414;SDS011;3240;48.790;9.210;2022-10-17T05:48:37;11.27;;;5.10;;
6414;SDS011;3240;48.790;9.210;2022-10-17T05:51:06;6.80;;;4.40;;
6414;SDS011;3240;48.790;9.210;2022-10-17T05:53:35;11.67;;;5.00;;
6414;SDS011;3240;48.790;9.210;2022-10-17T05:56:03;13.50;;;5.10;;
6414;SDS011;3240;48.790;9.210;2022-10-17T05:58:31;12.73;;;5.47;;
6414;SDS011;3240;48.790;9.210;2022-10-17T06:01:00;9.80;;;5.20;;
6414;SDS011;3240;48.790;9.210;2022-10-17T06:03:27;8.03;;;5.43;;
6414;SDS011;3240;48.790;9.210;2022-10-17T06:05:57;10.20;;;5.03;;
6414;SDS011;3240;48.790;9.210;2022-10-17T06:08:24;16.80;;;5.10;;
6414;SDS011;3240;48.790;9.210;2022-10-17T06:10:52;13.53;;;4.80;;
6414;SDS011;3240;48.790;9.210;2022-10-17T06:13:21;8.50;;;4.57;;
6414;SDS011;3240;48.790;9.210;2022-10-17T06:15:49;5.83;;;4.00;;
6414;SDS011;3240;48.790;9.210;2022-10-17T06:18:17;8.83;;;4.13;;
6414;SDS011;3240;48.790;9.210;2022-10-17T06:20:46;9.53;;;4.83;;
6414;SDS011;3240;48.790;9.210;2022-10-17T06:23:14;8.00;;;4.50;;
6414;SDS011;3240;48.790;9.210;2022-10-17T06:25:42;6.57;;;4.47;;
6414;SDS011;3240;48.790;9.210;2022-10-17T06:28:11;11.10;;;3.93;;
6414;SDS011;3240;48.790;9.210;2022-10-17T06:30:39;15.53;;;5.07;;
6414;SDS011;3240;48.790;9.210;2022-10-17T06:33:07;7.43;;;4.77;;
6414;SDS011;3240;48.790;9.210;2022-10-17T06:35:36;14.70;;;4.90;;
6414;SDS011;3240;48.790;9.210;2022-10-17T06:38:04;10.10;;;4.20;;
6414;SDS011;3240;48.790;9.210;2022-10-17T06:40:32;11.43;;;4.40;;
6414;SDS011;3240;48.790;9.210;2022-10-17T06:43:01;6.20;;;4.47;;
6414;SDS011;3240;48.790;9.210;2022-10-17T06:45:29;7.00;;;4.10;;
6414;SDS011;3240;48.790;9.210;2022-10-17T06:47:57;8.83;;;4.70;;
6414;SDS011;3240;48.790;9.210;2022-10-17T06:50:26;5.27;;;3.93;;
6414;SDS011;3240;48.790;9.210;2022-10-17T06:52:54;12.20;;;4.33;;
6414;SDS011;3240;48.790;9.210;2022-10-17T06:55:22;11.00;;;4.67;;
6414;SDS011;3240;48.790;9.210;2022-10-17T06:57:52;11.43;;;4.43;;
6414;SDS011;3240;48.790;9.210;2022-10-17T07:00:19;11.83;;;4.40;;
6414;SDS011;3240;48.790;9.210;2022-10-17T07:02:48;19.40;;;5.17;;
6414;SDS011;3240;48.790;9.210;2022-10-17T07:05:17;7.33;;;4.30;;
6414;SDS011;3240;48.790;9.210;2022-10-17T07:07:45;7.53;;;4.00;;
6414;SDS011;3240;48.790;9.210;2022-10-17T07:10:13;5.20;;;3.43;;
6414;SDS011;3240;48.790;9.210;2022-10-17T07:12:42;7.30;;;4.40;;
6414;SDS011;3240;48.790;9.210;2022-10-17T07:15:10;10.80;;;4.40;;
6414;SDS011;3240;48.790;9.210;2022-10-17T07:17:38;14.77;;;4.90;;
6414;SDS011;3240;48.790;9.210;2022-10-17T07:20:07;9.00;;;3.70;;
6414;SDS011;3240;48.790;9.210;2022-10-17T07:22:36;7.03;;;3.60;;
6414;SDS011;3240;48.790;9.210;2022-10-17T07:25:04;11.30;;;3.93;;
6414;SDS011;3240;48.790;9.210;2022-10-17T07:27:33;10.40;;;4.30;;
6414;SDS011;3240;48.790;9.210;2022-10-17T07:30:01;15.00;;;3.77;;
6414;SDS011;3240;48.790;9.210;2022-10-17T07:32:30;5.70;;;3.77;;
6414;SDS011;3240;48.790;9.210;2022-10-17T07:34:58;7.40;;;3.47;;
6414;SDS011;3240;48.790;9.210;2022-10-17T07:37:26;19.60;;;3.63;;
6414;SDS011;3240;48.790;9.210;2022-10-17T07:39:55;5.80;;;3.27;;
6414;SDS011;3240;48.790;9.210;2022-10-17T07:42:23;9.38;;;4.10;;
6414;SDS011;3240;48.790;9.210;2022-10-17T07:44:51;9.93;;;3.73;;
6414;SDS011;3240;48.790;9.210;2022-10-17T07:47:20;11.53;;;4.23;;
6414;SDS011;3240;48.790;9.210;2022-10-17T07:49:48;9.83;;;4.50;;
6414;SDS011;3240;48.790;9.210;2022-10-17T07:52:16;8.07;;;4.03;;
6414;SDS011;3240;48.790;9.210;2022-10-17T07:54:44;11.40;;;3.80;;
6414;SDS011;3240;48.790;9.210;2022-10-17T07:57:13;9.67;;;3.93;;
6414;SDS011;3240;48.790;9.210;2022-10-17T07:59:41;15.07;;;4.33;;
6414;SDS011;3240;48.790;9.210;2022-10-17T08:02:17;8.43;;;3.60;;
6414;SDS011;3240;48.790;9.210;2022-10-17T08:04:41;7.50;;;3.80;;
6414;SDS011;3240;48.790;9.210;2022-10-17T08:07:09;9.80;;;3.90;;
6414;SDS011;3240;48.790;9.210;2022-10-17T08:09:37;8.70;;;3.60;;
6414;SDS011;3240;48.790;9.210;2022-10-17T08:12:06;7.90;;;4.30;;
6414;SDS011;3240;48.790;9.210;2022-10-17T08:14:34;13.90;;;4.50;;
6414;SDS011;3240;48.790;9.210;2022-10-17T08:17:02;9.50;;;3.53;;
6414;SDS011;3240;48.790;9.210;2022-10-17T08:19:31;6.50;;;3.73;;
6414;SDS011;3240;48.790;9.210;2022-10-17T08:21:59;5.27;;;3.90;;
6414;SDS011;3240;48.790;9.210;2022-10-17T08:24:27;11.80;;;4.53;;
6414;SDS011;3240;48.790;9.210;2022-10-17T08:26:56;7.67;;;3.90;;
6414;SDS011;3240;48.790;9.210;2022-10-17T08:29:24;16.10;;;4.37;;
6414;SDS011;3240;48.790;9.210;2022-10-17T08:31:52;8.30;;;4.30;;
6414;SDS011;3240;48.790;9.210;2022-10-17T08:34:21;10.00;;;3.70;;
6414;SDS011;3240;48.790;9.210;2022-10-17T08:36:49;8.10;;;3.40;;
6414;SDS011;3240;48.790;9.210;2022-10-17T08:39:17;9.90;;;3.73;;
6414;SDS011;3240;48.790;9.210;2022-10-17T08:41:51;6.20;;;3.57;;
6414;SDS011;3240;48.790;9.210;2022-10-17T08:44:19;11.73;;;3.70;;
6414;SDS011;3240;48.790;9.210;2022-10-17T08:46:46;9.27;;;4.10;;
6414;SDS011;3240;48.790;9.210;2022-10-17T08:49:45;15.03;;;5.00;;
6414;SDS011;3240;48.790;9.210;2022-10-17T08:51:57;6.23;;;3.53;;
6414;SDS011;3240;48.790;9.210;2022-10-17T08:54:37;5.80;;;3.60;;
6414;SDS011;3240;48.790;9.210;2022-10-17T08:56:53;12.97;;;4.43;;
6414;SDS011;3240;48.790;9.210;2022-10-17T08:59:24;9.37;;;3.70;;
6414;SDS011;3240;48.790;9.210;2022-10-17T09:02:26;8.97;;;3.83;;
6414;SDS011;3240;48.790;9.210;2022-10-17T09:04:39;6.17;;;3.20;;
6414;SDS011;3240;48.790;9.210;2022-10-17T09:07:05;7.47;;;3.60;;
6414;SDS011;3240;48.790;9.210;2022-10-17T09:09:35;7.43;;;3.70;;
6414;SDS011;3240;48.790;9.210;2022-10-17T09:12:11;11.27;;;4.60;;
6414;SDS011;3240;48.790;9.210;2022-10-17T09:17:17;9.77;;;3.13;;
6414;SDS011;3240;48.790;9.210;2022-10-17T09:19:44;9.40;;;3.47;;
6414;SDS011;3240;48.790;9.210;2022-10-17T09:22:12;12.20;;;3.10;;
6414;SDS011;3240;48.790;9.210;2022-10-17T09:24:41;10.10;;;3.40;;
6414;SDS011;3240;48.790;9.210;2022-10-17T09:29:54;9.50;;;3.10;;
6414;SDS011;3240;48.790;9.210;2022-10-17T09:32:22;9.60;;;3.40;;
6414;SDS011;3240;48.790;9.210;2022-10-17T09:34:48;8.83;;;3.07;;
6414;SDS011;3240;48.790;9.210;2022-10-17T09:37:17;14.47;;;4.80;;
6414;SDS011;3240;48.790;9.210;2022-10-17T09:39:45;8.20;;;3.73;;
6414;SDS011;3240;48.790;9.210;2022-10-17T09:42:14;8.20;;;3.80;;
6414;SDS011;3240;48.790;9.210;2022-10-17T09:45:03;9.90;;;3.53;;
6414;SDS011;3240;48.790;9.210;2022-10-17T09:47:31;9.30;;;3.77;;
6414;SDS011;3240;48.790;9.210;2022-10-17T09:49:58;14.77;;;4.03;;
6414;SDS011;3240;48.790;9.210;2022-10-17T09:52:33;7.40;;;3.27;;
6414;SDS011;3240;48.790;9.210;2022-10-17T09:55:02;5.80;;;3.47;;
6414;SDS011;3240;48.790;9.210;2022-10-17T09:57:29;5.63;;;3.10;;
6414;SDS011;3240;48.790;9.210;2022-10-17T09:59:58;6.97;;;3.10;;
6414;SDS011;3240;48.790;9.210;2022-10-17T10:02:26;6.30;;;3.40;;
6414;SDS011;3240;48.790;9.210;2022-10-17T10:04:57;12.13;;;4.20;;
6414;SDS011;3240;48.790;9.210;2022-10-17T10:07:25;31.53;;;5.10;;
6414;SDS011;3240;48.790;9.210;2022-10-17T10:09:52;10.73;;;4.03;;
6414;SDS011;3240;48.790;9.210;2022-10-17T10:12:22;17.07;;;4.40;;
6414;SDS011;3240;48.790;9.210;2022-10-17T10:14:49;8.47;;;4.00;;
6414;SDS011;3240;48.790;9.210;2022-10-17T10:17:28;10.70;;;5.33;;
6414;SDS011;3240;48.790;9.210;2022-10-17T10:19:55;8.13;;;4.03;;
6414;SDS011;3240;48.790;9.210;2022-10-17T10:22:23;10.40;;;3.83;;
6414;SDS011;3240;48.790;9.210;2022-10-17T10:27:25;12.00;;;3.90;;
6414;SDS011;3240;48.790;9.210;2022-10-17T10:29:54;6.37;;;3.20;;
6414;SDS011;3240;48.790;9.210;2022-10-17T10:32:25;10.77;;;3.80;;
6414;SDS011;3240;48.790;9.210;2022-10-17T10:34:54;7.60;;;3.10;;
6414;SDS011;3240;48.790;9.210;2022-10-17T10:37:22;7.40;;;3.20;;
6414;SDS011;3240;48.790;9.210;2022-10-17T10:39:51;9.00;;;3.30;;
6414;SDS011;3240;48.790;9.210;2022-10-17T10:42:23;8.30;;;3.47;;
6414;SDS011;3240;48.790;9.210;2022-10-17T10:44:50;7.20;;;3.43;;
6414;SDS011;3240;48.790;9.210;2022-10-17T10:47:21;9.25;;;4.10;;
6414;SDS011;3240;48.790;9.210;2022-10-17T10:49:49;7.10;;;3.30;;
6414;SDS011;3240;48.790;9.210;2022-10-17T10:52:38;6.00;;;3.53;;
6414;SDS011;3240;48.790;9.210;2022-10-17T10:55:03;10.23;;;4.30;;
6414;SDS011;3240;48.790;9.210;2022-10-17T10:57:29;10.17;;;3.87;;
6414;SDS011;3240;48.790;9.210;2022-10-17T11:00:07;8.97;;;4.27;;
6414;SDS011;3240;48.790;9.210;2022-10-17T11:02:35;15.30;;;3.90;;
6414;SDS011;3240;48.790;9.210;2022-10-17T11:05:03;10.63;;;3.80;;
6414;SDS011;3240;48.790;9.210;2022-10-17T11:07:32;11.03;;;3.63;;
6414;SDS011;3240;48.790;9.210;2022-10-17T11:12:35;6.03;;;3.60;;
6414;SDS011;3240;48.790;9.210;2022-10-17T11:15:08;7.20;;;3.13;;
6414;SDS011;3240;48.790;9.210;2022-10-17T11:20:29;12.70;;;3.30;;
6414;SDS011;3240;48.790;9.210;2022-10-17T11:22:59;7.07;;;2.80;;
6414;SDS011;3240;48.790;9.210;2022-10-17T11:25:32;6.13;;;3.23;;
6414;SDS011;3240;48.790;9.210;2022-10-17T11:27:59;5.40;;;2.43;;
6414;SDS011;3240;48.790;9.210;2022-10-17T11:30:38;10.33;;;3.20;;
6414;SDS011;3240;48.790;9.210;2022-10-17T11:32:56;10.20;;;3.43;;
6414;SDS011;3240;48.790;9.210;2022-10-17T11:35:27;15.83;;;2.93;;
6414;SDS011;3240;48.790;9.210;2022-10-17T11:40:39;6.67;;;3.20;;
6414;SDS011;3240;48.790;9.210;2022-10-17T11:43:26;5.50;;;2.67;;
6414;SDS011;3240;48.790;9.210;2022-10-17T11:45:55;3.90;;;1.97;;
6414;SDS011;3240;48.790;9.210;2022-10-17T11:48:25;4.30;;;1.67;;
6414;SDS011;3240;48.790;9.210;2022-10-17T11:50:59;3.60;;;1.80;;
6414;SDS011;3240;48.790;9.210;2022-10-17T11:53:24;4.53;;;1.67;;
6414;SDS011;3240;48.790;9.210;2022-10-17T11:55:51;7.60;;;1.30;;
6414;SDS011;3240;48.790;9.210;2022-10-17T11:58:26;2.90;;;1.43;;
6414;SDS011;3240;48.790;9.210;2022-10-17T12:00:56;5.60;;;1.70;;
6414;SDS011;3240;48.790;9.210;2022-10-17T12:03:24;4.13;;;1.77;;
6414;SDS011;3240;48.790;9.210;2022-10-17T12:05:55;2.40;;;1.20;;
6414;SDS011;3240;48.790;9.210;2022-10-17T12:08:25;2.27;;;1.50;;
6414;SDS011;3240;48.790;9.210;2022-10-17T12:11:09;6.80;;;1.63;;
6414;SDS011;3240;48.790;9.210;2022-10-17T12:13:51;5.53;;;2.13;;
6414;SDS011;3240;48.790;9.210;2022-10-17T12:24:24;2.83;;;1.40;;
6414;SDS011;3240;48.790;9.210;2022-10-17T12:26:47;5.67;;;1.80;;
6414;SDS011;3240;48.790;9.210;2022-10-17T12:29:22;1.90;;;1.70;;
6414;SDS011;3240;48.790;9.210;2022-10-17T12:31:44;2.40;;;1.57;;
6414;SDS011;3240;48.790;9.210;2022-10-17T12:34:14;4.07;;;2.20;;
6414;SDS011;3240;48.790;9.210;2022-10-17T12:36:41;5.00;;;1.90;;
6414;SDS011;3240;48.790;9.210;2022-10-17T12:39:41;4.93;;;1.80;;
6414;SDS011;3240;48.790;9.210;2022-10-17T12:41:53;3.00;;;1.50;;
6414;SDS011;3240;48.790;9.210;2022-10-17T12:44:36;8.43;;;1.70;;
6414;SDS011;3240;48.790;9.210;2022-10-17T12:49:48;5.20;;;2.10;;
6414;SDS011;3240;48.790;9.210;2022-10-17T12:52:18;6.33;;;1.83;;
6414;SDS011;3240;48.790;9.210;2022-10-17T12:54:48;4.73;;;2.10;;
6414;SDS011;3240;48.790;9.210;2022-10-17T12:57:19;6.03;;;1.70;;
6414;SDS011;3240;48.790;9.210;2022-10-17T12:59:46;5.33;;;1.87;;
6414;SDS011;3240;48.790;9.210;2022-10-17T13:02:19;7.63;;;1.80;;
6414;SDS011;3240;48.790;9.210;2022-10-17T13:04:45;6.83;;;2.30;;
6414;SDS011;3240;48.790;9.210;2022-10-17T13:07:18;5.00;;;1.70;;
6414;SDS011;3240;48.790;9.210;2022-10-17T13:09:45;4.40;;;1.90;;
6414;SDS011;3240;48.790;9.210;2022-10-17T13:12:15;1.77;;;1.43;;
6414;SDS011;3240;48.790;9.210;2022-10-17T13:14:42;1.80;;;1.63;;
6414;SDS011;3240;48.790;9.210;2022-10-17T13:19:44;2.57;;;1.67;;
6414;SDS011;3240;48.790;9.210;2022-10-17T13:22:15;9.90;;;2.00;;
6414;SDS011;3240;48.790;9.210;2022-10-17T13:24:42;2.20;;;2.00;;
6414;SDS011;3240;48.790;9.210;2022-10-17T13:29:44;13.50;;;2.57;;
6414;SDS011;3240;48.790;9.210;2022-10-17T13:32:13;4.07;;;2.23;;
6414;SDS011;3240;48.790;9.210;2022-10-17T13:34:41;4.40;;;2.17;;
6414;SDS011;3240;48.790;9.210;2022-10-17T13:37:10;3.20;;;2.17;;
6414;SDS011;3240;48.790;9.210;2022-10-17T13:39:39;5.60;;;2.23;;
6414;SDS011;3240;48.790;9.210;2022-10-17T13:42:20;3.40;;;1.90;;
6414;SDS011;3240;48.790;9.210;2022-10-17T13:44:34;4.07;;;1.90;;
6414;SDS011;3240;48.790;9.210;2022-10-17T13:47:03;5.73;;;2.03;;
6414;SDS011;3240;48.790;9.210;2022-10-17T13:49:34;14.02;;;2.65;;
6414;SDS011;3240;48.790;9.210;2022-10-17T13:52:02;14.00;;;2.43;;
6414;SDS011;3240;48.790;9.210;2022-10-17T13:54:31;5.23;;;2.03;;
6414;SDS011;3240;48.790;9.210;2022-10-17T13:56:59;4.13;;;2.17;;
6414;SDS011;3240;48.790;9.210;2022-10-17T13:59:38;4.73;;;1.93;;
6414;SDS011;3240;48.790;9.210;2022-10-17T14:02:12;2.80;;;1.73;;
6414;SDS011;3240;48.790;9.210;2022-10-17T14:04:38;4.37;;;2.00;;
6414;SDS011;3240;48.790;9.210;2022-10-17T14:07:14;4.83;;;2.03;;
6414;SDS011;3240;48.790;9.210;2022-10-17T14:09:35;3.33;;;2.10;;
6414;SDS011;3240;48.790;9.210;2022-10-17T14:12:07;5.50;;;2.10;;
6414;SDS011;3240;48.790;9.210;2022-10-17T14:14:33;8.30;;;2.47;;
6414;SDS011;3240;48.790;9.210;2022-10-17T14:17:02;4.20;;;1.90;;
6414;SDS011;3240;48.790;9.210;2022-10-17T14:19:30;3.87;;;1.87;;
6414;SDS011;3240;48.790;9.210;2022-10-17T14:24:33;4.90;;;2.10;;
6414;SDS011;3240;48.790;9.210;2022-10-17T14:27:01;4.70;;;2.13;;
6414;SDS011;3240;48.790;9.210;2022-10-17T14:29:30;2.30;;;1.53;;
6414;SDS011;3240;48.790;9.210;2022-10-17T14:31:59;2.80;;;2.00;;
6414;SDS011;3240;48.790;9.210;2022-10-17T14:34:28;5.53;;;1.77;;
6414;SDS011;3240;48.790;9.210;2022-10-17T14:36:55;5.60;;;2.27;;
6414;SDS011;3240;48.790;9.210;2022-10-17T14:39:24;7.23;;;2.13;;
6414;SDS011;3240;48.790;9.210;2022-10-17T14:41:52;9.03;;;1.77;;
6414;SDS011;3240;48.790;9.210;2022-10-17T14:44:24;8.50;;;2.67;;
6414;SDS011;3240;48.790;9.210;2022-10-17T14:46:53;3.53;;;1.77;;
6414;SDS011;3240;48.790;9.210;2022-10-17T14:49:25;6.50;;;1.93;;
6414;SDS011;3240;48.790;9.210;2022-10-17T14:54:26;5.10;;;2.30;;
6414;SDS011;3240;48.790;9.210;2022-10-17T14:56:54;4.18;;;2.12;;
6414;SDS011;3240;48.790;9.210;2022-10-17T14:59:23;3.20;;;1.87;;
6414;SDS011;3240;48.790;9.210;2022-10-17T15:01:51;7.23;;;4.20;;
6414;SDS011;3240;48.790;9.210;2022-10-17T15:04:19;6.43;;;1.90;;
6414;SDS011;3240;48.790;9.210;2022-10-17T15:06:52;3.20;;;2.27;;
6414;SDS011;3240;48.790;9.210;2022-10-17T15:09:16;4.43;;;1.97;;
6414;SDS011;3240;48.790;9.210;2022-10-17T15:11:44;12.47;;;2.10;;
6414;SDS011;3240;48.790;9.210;2022-10-17T15:14:13;5.80;;;2.30;;
6414;SDS011;3240;48.790;9.210;2022-10-17T15:16:41;5.60;;;2.07;;
6414;SDS011;3240;48.790;9.210;2022-10-17T15:19:11;2.63;;;1.87;;
6414;SDS011;3240;48.790;9.210;2022-10-17T15:21:38;4.77;;;2.23;;
6414;SDS011;3240;48.790;9.210;2022-10-17T15:24:06;4.13;;;2.00;;
6414;SDS011;3240;48.790;9.210;2022-10-17T15:26:35;6.17;;;2.23;;
6414;SDS011;3240;48.790;9.210;2022-10-17T15:29:03;3.90;;;1.93;;
6414;SDS011;3240;48.790;9.210;2022-10-17T15:31:31;3.30;;;2.10;;
6414;SDS011;3240;48.790;9.210;2022-10-17T15:34:00;2.60;;;2.20;;
6414;SDS011;3240;48.790;9.210;2022-10-17T15:36:29;3.70;;;1.90;;
6414;SDS011;3240;48.790;9.210;2022-10-17T15:38:57;11.30;;;2.60;;
6414;SDS011;3240;48.790;9.210;2022-10-17T15:41:26;3.20;;;1.90;;
6414;SDS011;3240;48.790;9.210;2022-10-17T15:43:53;3.17;;;2.00;;
6414;SDS011;3240;48.790;9.210;2022-10-17T15:46:22;6.07;;;1.90;;
6414;SDS011;3240;48.790;9.210;2022-10-17T15:48:50;6.30;;;2.70;;
6414;SDS011;3240;48.790;9.210;2022-10-17T15:51:18;5.93;;;2.53;;
6414;SDS011;3240;48.790;9.210;2022-10-17T15:53:46;3.97;;;2.57;;
6414;SDS011;3240;48.790;9.210;2022-10-17T15:56:19;6.70;;;2.43;;
6414;SDS011;3240;48.790;9.210;2022-10-17T15:58:46;7.40;;;2.23;;
6414;SDS011;3240;48.790;9.210;2022-10-17T16:01:17;9.00;;;3.20;;
6414;SDS011;3240;48.790;9.210;2022-10-17T16:03:43;7.20;;;2.80;;
6414;SDS011;3240;48.790;9.210;2022-10-17T16:06:11;4.50;;;3.00;;
6414;SDS011;3240;48.790;9.210;2022-10-17T16:08:39;3.77;;;2.83;;
6414;SDS011;3240;48.790;9.210;2022-10-17T16:11:11;7.70;;;2.00;;
6414;SDS011;3240;48.790;9.210;2022-10-17T16:13:37;2.40;;;1.90;;